Time;durP1;ratioP1;P1;durP2;ratioP2;P2;SDS_P1;SDS_P2;PMS_P1;PMS_P2;Temp;Humidity;BMP_temperature;BMP_pressure;BME280_temperature;BME280_humidity;BME280_pressure;Samples;Min_cycle;Max_cycle;Signal;HPM_P1;HPM_P2
2021/08/21 00:01:06;;;;;;;23.30;14.45;;;16.20;99.90;;;;;;5051224;28;20378;-71
2021/08/21 00:03:32;;;;;;;25.15;15.15;;;16.10;99.90;;;;;;5051653;28;20560;-71
2021/08/21 00:05:58;;;;;;;25.50;15.23;;;16.10;99.90;;;;;;5049904;28;20053;-72
2021/08/21 00:08:23;;;;;;;28.80;16.08;;;16.10;99.90;;;;;;5051585;28;20565;-73
2021/08/21 00:10:49;;;;;;;30.27;16.23;;;16.10;99.90;;;;;;5052164;28;20409;-72
2021/08/21 00:13:15;;;;;;;27.02;16.17;;;16.10;99.90;;;;;;5050900;28;20021;-72
2021/08/21 00:15:41;;;;;;;28.25;15.70;;;16.00;99.90;;;;;;5051963;28;20394;-73
2021/08/21 00:18:06;;;;;;;30.45;17.15;;;16.10;99.90;;;;;;5052166;28;20044;-72
2021/08/21 00:20:32;;;;;;;28.10;16.75;;;16.10;99.90;;;;;;5056182;28;20471;-72
2021/08/21 00:22:58;;;;;;;28.17;16.00;;;16.10;99.90;;;;;;5054860;28;20397;-73
2021/08/21 00:25:23;;;;;;;28.15;16.38;;;16.10;99.90;;;;;;5055565;28;20037;-72
2021/08/21 00:27:49;;;;;;;28.30;16.95;;;16.00;99.90;;;;;;5054886;28;20052;-72
2021/08/21 00:30:15;;;;;;;29.67;16.27;;;16.00;99.90;;;;;;5056283;28;20489;-72
2021/08/21 00:32:40;;;;;;;29.13;17.05;;;16.00;99.90;;;;;;5054528;28;20024;-73
2021/08/21 00:35:08;;;;;;;28.48;15.70;;;16.10;99.90;;;;;;5055622;28;20071;-73
2021/08/21 00:37:33;;;;;;;27.02;15.50;;;16.10;99.90;;;;;;5056000;28;20036;-72
2021/08/21 00:39:59;;;;;;;25.05;15.07;;;16.10;99.90;;;;;;5055089;28;20025;-72
2021/08/21 00:42:24;;;;;;;29.40;15.93;;;16.00;99.90;;;;;;5071172;28;20060;-72
2021/08/21 00:44:50;;;;;;;23.70;14.45;;;16.00;99.90;;;;;;5055478;28;20222;-72
2021/08/21 00:47:18;;;;;;;25.02;14.75;;;15.90;99.90;;;;;;5055076;28;20037;-72
2021/08/21 00:49:47;;;;;;;28.42;15.90;;;15.90;99.90;;;;;;5055301;28;20067;-73
2021/08/21 00:52:17;;;;;;;26.60;15.68;;;15.80;99.90;;;;;;5056266;28;20088;-73
2021/08/21 00:54:42;;;;;;;22.30;14.77;;;15.80;99.90;;;;;;5055720;28;20058;-74
2021/08/21 00:57:13;;;;;;;25.33;14.48;;;15.80;99.90;;;;;;5056832;28;20100;-73
2021/08/21 00:59:40;;;;;;;22.17;13.50;;;15.80;99.90;;;;;;5055647;28;20044;-73
2021/08/21 01:02:08;;;;;;;29.05;14.85;;;15.80;99.90;;;;;;5070944;28;20032;-73
2021/08/21 01:04:42;;;;;;;27.17;14.25;;;15.80;99.90;;;;;;5055380;28;20027;-73
2021/08/21 01:07:34;;;;;;;28.23;15.88;;;15.80;99.90;;;;;;5056165;28;20025;-73
2021/08/21 01:10:03;;;;;;;26.30;15.05;;;15.80;99.90;;;;;;5053719;28;20044;-73
2021/08/21 01:12:29;;;;;;;25.50;15.45;;;15.90;99.90;;;;;;5060567;28;20029;-74
2021/08/21 01:14:55;;;;;;;23.02;14.82;;;15.90;99.90;;;;;;5068447;28;20021;-71
2021/08/21 01:17:21;;;;;;;23.95;15.13;;;15.90;99.90;;;;;;5067211;28;20051;-74
2021/08/21 01:19:49;;;;;;;21.33;13.50;;;15.90;99.90;;;;;;5069533;28;20025;-73
2021/08/21 01:22:22;;;;;;;26.40;14.65;;;15.90;99.90;;;;;;5070725;28;20060;-73
2021/08/21 01:24:53;;;;;;;23.92;13.80;;;15.90;99.90;;;;;;5068027;28;20032;-73
2021/08/21 01:27:24;;;;;;;26.02;14.07;;;16.00;99.90;;;;;;5084976;28;20128;-73
2021/08/21 01:29:51;;;;;;;23.83;14.13;;;16.00;99.90;;;;;;5068082;28;20432;-73
2021/08/21 01:32:17;;;;;;;22.48;13.90;;;16.00;99.90;;;;;;5068517;28;20025;-73
2021/08/21 01:34:44;;;;;;;22.83;13.43;;;16.00;99.90;;;;;;5068074;28;20032;-74
2021/08/21 01:37:10;;;;;;;20.35;12.25;;;16.10;99.90;;;;;;5066029;28;20120;-73
2021/08/21 01:39:36;;;;;;;28.67;14.27;;;16.10;99.90;;;;;;5066144;28;20021;-73
2021/08/21 01:42:03;;;;;;;24.83;13.80;;;16.10;99.90;;;;;;5065211;28;20028;-73
2021/08/21 01:44:28;;;;;;;19.52;12.93;;;16.10;99.90;;;;;;5070579;28;20089;-72
2021/08/21 01:46:54;;;;;;;21.63;13.48;;;16.10;99.90;;;;;;5074966;28;20029;-76
2021/08/21 01:49:22;;;;;;;20.27;12.40;;;16.10;99.90;;;;;;5075043;28;20072;-74
2021/08/21 01:51:49;;;;;;;21.58;13.30;;;16.10;99.90;;;;;;5075229;28;20029;-70
2021/08/21 01:54:17;;;;;;;21.98;13.68;;;16.10;99.90;;;;;;5073400;28;20032;-69
2021/08/21 01:56:54;;;;;;;23.42;13.93;;;16.10;99.90;;;;;;5075327;28;20412;-74
2021/08/21 01:59:34;;;;;;;23.00;13.73;;;16.00;99.90;;;;;;5075348;28;20104;-72
2021/08/21 02:02:00;;;;;;;23.10;14.13;;;16.10;99.90;;;;;;5074110;28;20044;-76
2021/08/21 02:04:27;;;;;;;23.95;14.07;;;16.10;99.90;;;;;;5075120;28;20033;-75
2021/08/21 02:06:53;;;;;;;27.58;14.68;;;16.10;99.90;;;;;;5075143;28;20009;-72
2021/08/21 02:09:21;;;;;;;24.80;14.63;;;16.00;99.90;;;;;;5074996;28;20098;-72
2021/08/21 02:11:47;;;;;;;;;;;16.00;99.90;;;;;;5075041;28;20020;-72
2021/08/21 02:14:14;;;;;;;25.45;14.40;;;16.00;99.90;;;;;;5073684;28;19943;-74
2021/08/21 02:16:40;;;;;;;30.35;15.32;;;16.00;99.90;;;;;;5061656;28;20083;-73
2021/08/21 02:19:06;;;;;;;26.95;14.35;;;15.90;99.90;;;;;;5059641;28;20035;-73
2021/08/21 02:21:32;;;;;;;25.52;14.82;;;15.90;99.90;;;;;;5058055;28;20477;-73
2021/08/21 02:23:58;;;;;;;27.50;14.55;;;15.90;99.90;;;;;;5059242;28;20027;-73
2021/08/21 02:26:27;;;;;;;26.80;14.23;;;15.90;99.90;;;;;;5052883;28;20052;-74
2021/08/21 02:28:54;;;;;;;24.55;14.68;;;15.90;99.90;;;;;;5073549;28;20033;-73
2021/08/21 02:31:22;;;;;;;35.20;15.80;;;15.90;99.90;;;;;;5055749;28;20390;-71
2021/08/21 02:33:48;;;;;;;28.80;13.98;;;15.90;99.90;;;;;;5056552;28;20028;-74
2021/08/21 02:36:15;;;;;;;32.00;16.10;;;15.90;99.90;;;;;;5053570;28;20036;-73
2021/08/21 02:38:43;;;;;;;28.80;16.08;;;15.90;99.90;;;;;;5055829;28;20090;-74
2021/08/21 02:41:09;;;;;;;31.27;17.38;;;16.00;99.90;;;;;;5052931;28;20058;-72
2021/08/21 02:43:35;;;;;;;39.38;17.67;;;16.10;99.90;;;;;;5049858;28;20504;-74
2021/08/21 02:46:00;;;;;;;33.63;17.27;;;16.10;99.90;;;;;;5053275;28;20040;-73
2021/08/21 02:48:26;;;;;;;39.35;18.58;;;16.10;99.90;;;;;;5054414;28;20037;-73
2021/08/21 02:50:52;;;;;;;33.88;17.95;;;16.10;99.90;;;;;;5052253;28;20075;-73
2021/08/21 02:53:18;;;;;;;38.25;18.27;;;16.10;99.90;;;;;;5053551;28;20013;-73
2021/08/21 02:55:44;;;;;;;37.55;19.73;;;16.10;99.90;;;;;;5053078;28;20020;-74
2021/08/21 02:58:10;;;;;;;45.38;21.80;;;16.20;99.90;;;;;;5053273;28;20021;-73
2021/08/21 03:00:36;;;;;;;43.85;20.70;;;16.20;99.90;;;;;;5052201;28;20059;-73
2021/08/21 03:03:01;;;;;;;44.53;20.95;;;16.20;99.90;;;;;;5052639;28;20448;-73
2021/08/21 03:05:27;;;;;;;43.92;19.65;;;16.20;99.90;;;;;;5052149;28;20064;-74
2021/08/21 03:07:53;;;;;;;39.88;17.92;;;16.20;99.90;;;;;;5051070;28;20043;-74
2021/08/21 03:10:18;;;;;;;36.42;17.80;;;16.20;99.90;;;;;;5052719;28;20120;-74
2021/08/21 03:12:45;;;;;;;44.58;21.13;;;16.20;99.90;;;;;;5051473;28;20147;-74
2021/08/21 03:15:10;;;;;;;39.78;20.15;;;16.20;99.90;;;;;;5052958;28;20052;-73
2021/08/21 03:17:36;;;;;;;38.25;18.48;;;16.20;99.90;;;;;;5052291;28;20072;-73
2021/08/21 03:20:04;;;;;;;36.50;16.35;;;16.20;99.90;;;;;;5052020;28;20025;-72
2021/08/21 03:22:30;;;;;;;36.58;17.65;;;16.10;99.90;;;;;;5052635;28;20033;-73
2021/08/21 03:24:55;;;;;;;31.90;16.45;;;16.10;99.90;;;;;;5050856;28;20024;-73
2021/08/21 03:27:21;;;;;;;39.42;17.73;;;16.10;99.90;;;;;;5051429;28;20186;-73
2021/08/21 03:29:47;;;;;;;33.00;17.88;;;16.10;99.90;;;;;;5050429;28;20028;-74
2021/08/21 03:32:16;;;;;;;30.90;16.52;;;16.10;99.90;;;;;;5050856;28;20100;-73
2021/08/21 03:34:42;;;;;;;36.45;17.27;;;16.20;99.90;;;;;;5052090;28;20013;-73
2021/08/21 03:37:08;;;;;;;34.45;18.45;;;16.20;99.90;;;;;;5052455;28;20128;-73
2021/08/21 03:39:34;;;;;;;29.27;15.82;;;16.20;99.90;;;;;;5051875;28;20103;-73
2021/08/21 03:41:59;;;;;;;30.85;16.02;;;16.20;99.90;;;;;;5051954;28;20033;-73
2021/08/21 03:44:25;;;;;;;35.83;18.02;;;16.20;99.90;;;;;;5050716;28;20138;-73
2021/08/21 03:46:50;;;;;;;31.30;16.15;;;16.20;99.90;;;;;;5052087;28;20524;-74
2021/08/21 03:49:16;;;;;;;29.77;16.42;;;16.20;99.90;;;;;;5052056;28;20546;-71
2021/08/21 03:51:42;;;;;;;26.45;14.68;;;16.20;99.90;;;;;;5051640;28;20028;-71
2021/08/21 03:54:07;;;;;;;34.92;16.40;;;16.20;99.90;;;;;;5049604;28;20456;-71
2021/08/21 03:56:33;;;;;;;29.05;14.90;;;16.20;99.90;;;;;;5052755;28;20025;-70
2021/08/21 03:58:58;;;;;;;32.53;15.15;;;16.20;99.90;;;;;;5051398;28;20029;-71
2021/08/21 04:01:24;;;;;;;30.83;14.43;;;16.10;99.90;;;;;;5052674;28;20067;-71
2021/08/21 04:03:50;;;;;;;24.88;14.23;;;16.10;99.90;;;;;;5051106;28;20029;-72
2021/08/21 04:06:15;;;;;;;25.58;13.95;;;16.00;99.90;;;;;;5053472;28;20063;-72
2021/08/21 04:08:41;;;;;;;23.45;13.05;;;16.00;99.90;;;;;;5052215;28;20122;-72
2021/08/21 04:11:06;;;;;;;23.95;14.23;;;16.00;99.90;;;;;;5052382;28;20048;-72
2021/08/21 04:13:32;;;;;;;26.27;13.23;;;15.90;99.90;;;;;;5052538;28;20025;-72
2021/08/21 04:15:58;;;;;;;28.45;14.25;;;15.90;99.90;;;;;;5052998;28;20029;-71
2021/08/21 04:18:24;;;;;;;26.27;14.50;;;15.80;99.90;;;;;;5052439;28;20477;-71
2021/08/21 04:20:49;;;;;;;28.45;14.48;;;15.80;99.90;;;;;;5053233;28;20117;-71
2021/08/21 04:23:15;;;;;;;27.63;14.50;;;15.80;99.90;;;;;;5052689;28;20048;-72
2021/08/21 04:25:40;;;;;;;25.15;14.32;;;15.80;99.90;;;;;;5053390;28;20486;-72
2021/08/21 04:28:06;;;;;;;25.35;14.55;;;15.80;99.90;;;;;;5052448;28;20033;-71
2021/08/21 04:30:32;;;;;;;27.80;14.60;;;15.80;99.90;;;;;;5052564;28;20048;-73
2021/08/21 04:32:57;;;;;;;30.75;14.98;;;15.90;99.90;;;;;;5051257;28;20021;-72
2021/08/21 04:35:23;;;;;;;34.55;14.90;;;15.90;99.90;;;;;;5051479;28;20103;-71
2021/08/21 04:37:48;;;;;;;27.25;14.35;;;15.90;99.90;;;;;;5061294;28;20061;-72
2021/08/21 04:40:14;;;;;;;28.88;15.35;;;16.00;99.90;;;;;;5072827;28;20060;-73
2021/08/21 04:42:40;;;;;;;30.17;15.30;;;16.00;99.90;;;;;;5059093;28;20013;-73
2021/08/21 04:45:07;;;;;;;30.58;14.32;;;16.10;99.90;;;;;;5050956;28;20127;-73
2021/08/21 04:47:33;;;;;;;28.95;14.45;;;16.10;99.90;;;;;;5050624;28;20044;-73
2021/08/21 04:49:59;;;;;;;29.60;15.07;;;16.10;99.90;;;;;;5051650;28;20408;-73
2021/08/21 04:52:24;;;;;;;35.55;15.70;;;16.10;99.90;;;;;;5050461;28;20124;-73
2021/08/21 04:54:51;;;;;;;29.65;16.25;;;16.10;99.90;;;;;;5051085;28;20573;-73
2021/08/21 04:57:17;;;;;;;36.63;16.75;;;16.10;99.90;;;;;;5051350;28;20476;-73
2021/08/21 04:59:43;;;;;;;30.80;16.23;;;16.20;99.90;;;;;;5052270;28;20033;-73
2021/08/21 05:02:09;;;;;;;30.85;16.45;;;16.30;99.90;;;;;;5052001;28;20030;-73
2021/08/21 05:04:35;;;;;;;36.08;17.17;;;16.30;99.90;;;;;;5050101;28;20048;-73
2021/08/21 05:07:00;;;;;;;33.88;15.57;;;16.40;99.90;;;;;;5055882;28;20029;-72
2021/08/21 05:09:26;;;;;;;29.70;15.68;;;16.50;99.90;;;;;;5055788;28;20163;-72
2021/08/21 05:11:51;;;;;;;32.35;16.58;;;16.70;99.90;;;;;;5055340;28;20028;-72
2021/08/21 05:14:17;;;;;;;28.48;15.55;;;16.70;99.90;;;;;;5053290;28;20041;-74
2021/08/21 05:16:46;;;;;;;26.33;14.95;;;16.60;99.90;;;;;;5055295;28;20033;-72
2021/08/21 05:20:04;;;;;;;26.77;14.32;;;16.60;99.90;;;;;;5055134;28;20493;-72
2021/08/21 05:22:10;;;;;;;24.97;13.13;;;16.60;99.90;;;;;;5053172;28;20048;-72
2021/08/21 05:24:35;;;;;;;28.42;14.85;;;16.60;99.90;;;;;;5055178;28;20051;-72
2021/08/21 05:27:01;;;;;;;26.75;13.40;;;16.70;99.90;;;;;;5054995;28;20469;-72
2021/08/21 05:29:27;;;;;;;28.92;15.32;;;16.70;99.90;;;;;;5054777;28;20045;-73
2021/08/21 05:31:55;;;;;;;28.73;13.68;;;16.80;99.90;;;;;;5053643;28;20086;-72
2021/08/21 05:34:21;;;;;;;28.92;13.10;;;16.80;99.90;;;;;;5054736;28;20031;-72
2021/08/21 05:36:47;;;;;;;27.90;13.75;;;16.70;99.90;;;;;;5054631;28;20107;-73
2021/08/21 05:39:13;;;;;;;32.67;14.45;;;16.70;99.90;;;;;;5054496;28;20469;-73
2021/08/21 05:41:38;;;;;;;26.00;14.00;;;16.70;99.90;;;;;;5052424;28;20024;-74
2021/08/21 05:44:04;;;;;;;27.08;15.55;;;16.70;99.90;;;;;;5054113;28;20029;-73
2021/08/21 05:46:30;;;;;;;32.47;15.05;;;16.70;99.90;;;;;;5052923;28;20427;-73
2021/08/21 05:48:55;;;;;;;30.33;14.23;;;16.70;99.90;;;;;;5053164;28;20484;-73
2021/08/21 05:51:21;;;;;;;34.72;15.95;;;16.70;99.90;;;;;;5053120;28;20037;-73
2021/08/21 05:53:46;;;;;;;34.88;17.08;;;16.80;99.90;;;;;;5054917;28;20025;-72
2021/08/21 05:56:12;;;;;;;31.92;16.20;;;16.90;99.90;;;;;;5053600;28;20035;-72
2021/08/21 05:58:38;;;;;;;31.75;17.38;;;17.00;99.90;;;;;;5053513;28;20036;-73
2021/08/21 06:01:03;;;;;;;30.92;16.10;;;17.00;99.90;;;;;;5053097;28;20033;-73
2021/08/21 06:03:29;;;;;;;32.78;17.85;;;17.00;99.90;;;;;;5053377;28;20029;-72
2021/08/21 06:05:54;;;;;;;39.03;18.30;;;17.10;99.90;;;;;;5053503;28;20416;-74
2021/08/21 06:08:20;;;;;;;44.28;18.50;;;17.10;99.90;;;;;;5053904;28;20477;-73
2021/08/21 06:10:46;;;;;;;41.30;21.05;;;17.10;99.90;;;;;;5054208;28;20048;-73
2021/08/21 06:13:12;;;;;;;41.78;19.25;;;17.10;99.90;;;;;;5053558;28;20025;-72
2021/08/21 06:15:38;;;;;;;37.20;18.77;;;17.10;99.90;;;;;;5052008;28;20029;-72
2021/08/21 06:18:03;;;;;;;43.35;19.80;;;17.20;99.90;;;;;;5051243;28;20039;-73
2021/08/21 06:20:30;;;;;;;38.25;20.60;;;17.30;99.90;;;;;;5053483;28;20036;-73
2021/08/21 06:22:55;;;;;;;37.22;19.38;;;17.50;99.90;;;;;;5052800;28;20104;-73
2021/08/21 06:25:21;;;;;;;32.78;17.08;;;17.60;99.90;;;;;;5052718;28;20475;-73
2021/08/21 06:27:47;;;;;;;43.45;22.25;;;17.60;99.90;;;;;;5053229;28;20036;-73
2021/08/21 06:30:13;;;;;;;39.50;19.30;;;17.60;99.90;;;;;;5052588;28;20032;-73
2021/08/21 06:32:39;;;;;;;35.78;21.10;;;17.70;99.90;;;;;;5052933;28;20036;-73
2021/08/21 06:35:05;;;;;;;46.65;20.17;;;17.80;99.90;;;;;;5051751;28;20389;-74
2021/08/21 06:37:30;;;;;;;40.83;20.38;;;17.80;99.90;;;;;;5053145;28;20028;-73
2021/08/21 06:39:56;;;;;;;46.55;22.60;;;17.80;99.90;;;;;;5053215;28;20040;-73
2021/08/21 06:42:22;;;;;;;43.28;22.50;;;17.90;99.90;;;;;;5052427;28;20025;-73
2021/08/21 06:44:48;;;;;;;39.20;22.05;;;18.00;99.90;;;;;;5053529;28;20021;-73
2021/08/21 06:47:17;;;;;;;41.10;21.42;;;18.00;99.90;;;;;;5052954;28;20431;-72
2021/08/21 06:49:43;;;;;;;45.50;21.95;;;18.10;99.90;;;;;;5051852;28;20116;-72
2021/08/21 06:52:08;;;;;;;41.72;21.15;;;18.20;99.90;;;;;;5052510;28;20100;-74
2021/08/21 06:54:34;;;;;;;34.63;20.02;;;18.20;99.90;;;;;;5054023;28;20067;-73
2021/08/21 06:56:59;;;;;;;39.03;19.58;;;18.20;99.90;;;;;;5054433;28;20025;-73
2021/08/21 06:59:25;;;;;;;35.83;19.98;;;18.30;99.90;;;;;;5053448;28;20068;-74
2021/08/21 07:01:54;;;;;;;41.80;19.88;;;18.40;99.90;;;;;;5053790;28;20032;-74
2021/08/21 07:04:19;;;;;;;29.92;17.05;;;18.50;99.90;;;;;;5052036;28;20025;-74
2021/08/21 07:06:45;;;;;;;30.10;16.75;;;18.60;99.90;;;;;;5054777;28;20021;-72
2021/08/21 07:09:11;;;;;;;27.25;16.13;;;18.70;99.90;;;;;;5054617;28;20421;-72
2021/08/21 07:11:36;;;;;;;28.35;15.70;;;18.90;99.90;;;;;;5056122;28;20021;-73
2021/08/21 07:14:02;;;;;;;19.17;12.82;;;19.10;99.90;;;;;;5071355;28;20059;-73
2021/08/21 07:16:28;;;;;;;22.50;14.30;;;19.20;99.90;;;;;;5064704;28;20021;-74
2021/08/21 07:18:53;;;;;;;26.33;14.27;;;19.30;99.90;;;;;;5068613;28;20029;-75
2021/08/21 07:21:21;;;;;;;21.58;13.30;;;19.40;99.90;;;;;;5066387;28;20049;-74
2021/08/21 07:23:47;;;;;;;19.08;11.40;;;19.60;99.90;;;;;;5068508;28;20021;-73
2021/08/21 07:26:13;;;;;;;21.33;12.18;;;19.80;99.90;;;;;;5083619;28;20564;-76
2021/08/21 07:28:39;;;;;;;16.75;11.57;;;20.00;99.90;;;;;;5065635;28;20060;-72
2021/08/21 07:31:04;;;;;;;18.00;11.40;;;20.10;99.90;;;;;;5069907;28;20028;-73
2021/08/21 07:33:30;;;;;;;15.27;10.98;;;20.20;99.90;;;;;;5068768;28;20023;-72
2021/08/21 07:35:56;;;;;;;14.00;9.43;;;20.50;99.90;;;;;;5072958;28;20136;-73
2021/08/21 07:38:22;;;;;;;18.00;11.05;;;20.60;99.90;;;;;;5073962;28;20096;-73
2021/08/21 07:40:48;;;;;;;16.67;10.52;;;20.70;99.90;;;;;;5072891;28;20096;-73
2021/08/21 07:43:13;;;;;;;14.90;9.38;;;20.70;99.90;;;;;;5072437;28;20111;-73
2021/08/21 07:45:39;;;;;;;15.60;10.25;;;20.60;99.90;;;;;;5065774;28;20053;-73
2021/08/21 07:48:05;;;;;;;16.25;9.88;;;20.60;99.90;;;;;;5061264;28;20120;-75
2021/08/21 07:50:31;;;;;;;21.15;9.23;;;20.80;99.90;;;;;;5070813;28;20084;-74
2021/08/21 07:52:56;;;;;;;19.08;10.25;;;21.00;99.90;;;;;;5070565;28;20033;-73
2021/08/21 07:55:22;;;;;;;22.20;9.77;;;21.10;99.90;;;;;;5074040;28;20024;-76
2021/08/21 07:57:47;;;;;;;17.80;10.30;;;21.20;99.90;;;;;;5073520;28;20100;-73
2021/08/21 08:00:14;;;;;;;16.05;9.20;;;21.20;99.90;;;;;;5073535;28;20032;-74
2021/08/21 08:02:44;;;;;;;18.88;10.82;;;21.20;99.90;;;;;;5072952;28;20037;-73
2021/08/21 08:05:10;;;;;;;20.02;10.00;;;21.30;99.90;;;;;;5066612;28;20055;-73
2021/08/21 08:07:36;;;;;;;21.08;10.20;;;21.40;99.90;;;;;;5071018;28;20056;-72
2021/08/21 08:10:02;;;;;;;16.27;10.40;;;21.50;99.90;;;;;;5071388;28;20064;-74
2021/08/21 08:12:27;;;;;;;14.98;10.45;;;21.50;99.90;;;;;;5069262;28;20001;-76
2021/08/21 08:14:54;;;;;;;15.80;10.25;;;21.50;99.90;;;;;;5072179;28;20045;-75
2021/08/21 08:17:20;;;;;;;18.58;10.18;;;21.60;99.90;;;;;;5073633;28;20021;-71
2021/08/21 08:19:45;;;;;;;18.17;10.15;;;21.60;99.90;;;;;;5072880;28;20104;-71
2021/08/21 08:22:11;;;;;;;22.13;12.63;;;21.70;99.90;;;;;;5072992;28;20035;-74
2021/08/21 08:24:37;;;;;;;21.08;11.30;;;21.80;99.90;;;;;;5063335;28;20029;-71
2021/08/21 08:27:03;;;;;;;18.73;11.85;;;21.90;99.90;;;;;;5058985;28;20032;-74
2021/08/21 08:29:28;;;;;;;22.48;10.98;;;21.90;99.90;;;;;;5054036;28;20365;-72
2021/08/21 08:31:54;;;;;;;17.90;10.48;;;21.90;99.90;;;;;;5057124;28;20021;-72
2021/08/21 08:34:20;;;;;;;21.73;11.88;;;22.00;99.90;;;;;;5056721;28;20063;-72
2021/08/21 08:36:45;;;;;;;21.67;12.05;;;22.00;99.90;;;;;;5053222;28;20025;-73
2021/08/21 08:39:11;;;;;;;16.35;9.48;;;22.10;99.90;;;;;;5057010;28;20048;-67
2021/08/21 08:41:40;;;;;;;17.13;10.90;;;22.00;99.90;;;;;;5058169;28;20032;-71
2021/08/21 08:44:10;;;;;;;20.10;12.10;;;22.00;99.90;;;;;;5055814;28;20029;-73
2021/08/21 08:46:37;;;;;;;17.88;11.00;;;22.20;99.90;;;;;;5059487;28;20033;-72
2021/08/21 08:49:02;;;;;;;16.65;10.57;;;22.40;99.90;;;;;;5058644;28;20021;-73
2021/08/21 08:51:29;;;;;;;15.02;10.13;;;22.60;99.90;;;;;;5058125;28;20029;-71
2021/08/21 08:53:55;;;;;;;17.92;10.55;;;22.60;99.90;;;;;;5057344;28;20479;-72
2021/08/21 08:56:21;;;;;;;13.30;9.45;;;22.70;99.90;;;;;;5058737;28;20116;-75
2021/08/21 08:58:46;;;;;;;13.90;9.05;;;22.80;99.90;;;;;;5058526;28;20032;-72
2021/08/21 09:01:12;;;;;;;14.75;9.35;;;22.90;99.90;;;;;;5057684;28;20025;-74
2021/08/21 09:03:38;;;;;;;13.98;9.27;;;23.10;99.90;;;;;;5058428;28;20032;-72
2021/08/21 09:06:03;;;;;;;14.80;8.60;;;23.30;99.90;;;;;;5058353;28;20360;-73
2021/08/21 09:08:31;;;;;;;17.27;9.32;;;23.40;99.90;;;;;;5056636;28;20048;-73
2021/08/21 09:11:00;;;;;;;19.20;10.02;;;23.60;99.90;;;;;;5057566;28;20484;-72
2021/08/21 09:13:26;;;;;;;12.00;7.28;;;23.80;99.90;;;;;;5057458;28;20102;-72
2021/08/21 09:15:54;;;;;;;12.40;7.70;;;23.90;99.90;;;;;;5056355;28;20040;-73
2021/08/21 09:18:26;;;;;;;13.40;7.93;;;24.10;99.90;;;;;;5055986;28;20063;-74
2021/08/21 09:20:51;;;;;;;10.80;7.45;;;24.30;99.90;;;;;;5074153;28;20082;-73
2021/08/21 09:23:33;;;;;;;11.70;7.78;;;24.40;99.90;;;;;;5065398;28;20032;-72
2021/08/21 09:26:06;;;;;;;10.75;6.32;;;24.60;99.90;;;;;;5076223;28;20026;-73
2021/08/21 09:28:33;;;;;;;8.40;6.75;;;24.80;99.90;;;;;;5076646;28;20044;-72
2021/08/21 09:31:06;;;;;;;10.75;6.57;;;24.90;99.90;;;;;;5065426;28;20173;-72
2021/08/21 09:33:34;;;;;;;14.65;6.15;;;25.00;99.90;;;;;;5054397;28;20029;-72
2021/08/21 09:36:00;;;;;;;9.98;6.53;;;25.10;99.90;;;;;;5056204;28;20040;-73
2021/08/21 09:38:33;;;;;;;9.48;6.43;;;25.20;99.90;;;;;;5056983;28;20439;-73
2021/08/21 09:41:04;;;;;;;10.60;6.40;;;25.10;99.90;;;;;;5055914;28;20033;-72
2021/08/21 09:43:33;;;;;;;10.18;6.82;;;25.00;99.90;;;;;;5057030;28;20029;-72
2021/08/21 09:46:10;;;;;;;14.93;7.80;;;24.80;99.90;;;;;;5058732;28;20031;-72
2021/08/21 09:49:06;;;;;;;12.02;7.75;;;24.60;99.90;;;;;;5056420;28;20123;-72
2021/08/21 09:51:37;;;;;;;10.18;6.13;;;24.40;99.90;;;;;;5069015;28;20027;-72
2021/08/21 09:54:06;;;;;;;9.88;6.60;;;24.20;99.90;;;;;;5056318;28;20040;-73
2021/08/21 09:56:38;;;;;;;9.32;5.97;;;24.10;99.90;;;;;;5055009;28;20469;-74
2021/08/21 09:59:05;;;;;;;12.13;6.88;;;24.20;99.90;;;;;;5063959;28;20020;-72
2021/08/21 10:01:31;;;;;;;;;;;24.30;99.90;;;;;;5072440;28;20043;-73
2021/08/21 10:03:59;;;;;;;9.73;7.07;;;24.50;99.90;;;;;;5055589;28;19955;-72
2021/08/21 10:06:25;;;;;;;13.02;9.10;;;24.60;99.90;;;;;;5053278;28;20034;-71
2021/08/21 10:09:09;;;;;;;10.50;6.93;;;24.70;99.90;;;;;;5049827;28;20531;-73
2021/08/21 10:11:35;;;;;;;12.57;9.05;;;24.80;99.90;;;;;;5050670;28;20032;-73
2021/08/21 10:14:02;;;;;;;12.50;6.97;;;25.10;99.90;;;;;;5054303;28;20017;-74
2021/08/21 10:16:29;;;;;;;12.82;7.72;;;25.50;99.90;;;;;;5046181;28;20037;-75
2021/08/21 10:18:55;;;;;;;11.52;6.72;;;25.60;99.90;;;;;;5047570;28;21110;-75
2021/08/21 10:21:22;;;;;;;9.52;7.70;;;25.70;99.90;;;;;;5053790;28;20124;-73
2021/08/21 10:23:49;;;;;;;13.75;7.28;;;25.80;99.90;;;;;;5053021;28;20021;-74
2021/08/21 10:26:30;;;;;;;10.77;7.82;;;25.70;99.90;;;;;;5052571;28;20110;-74
2021/08/21 10:28:58;;;;;;;9.55;6.70;;;25.70;99.90;;;;;;5065064;28;20039;-74
2021/08/21 10:31:43;;;;;;;12.63;7.30;;;26.00;99.90;;;;;;5053391;28;20379;-75
2021/08/21 10:34:12;;;;;;;12.00;7.65;;;26.10;99.90;;;;;;5052497;28;20086;-73
2021/08/21 10:37:04;;;;;;;11.38;7.70;;;26.20;99.90;;;;;;5067311;28;20476;-73
2021/08/21 10:39:37;;;;;;;10.13;8.07;;;26.20;99.90;;;;;;5064543;28;20056;-73
2021/08/21 10:42:25;;;;;;;16.00;9.63;;;26.10;99.90;;;;;;5051582;28;20039;-74
2021/08/21 10:44:52;;;;;;;11.63;7.88;;;25.90;99.90;;;;;;5068130;28;20028;-74
2021/08/21 10:47:33;;;;;;;12.63;7.38;;;25.70;99.90;;;;;;5053964;28;20032;-73
2021/08/21 10:50:13;;;;;;;9.60;6.65;;;25.40;99.90;;;;;;5064468;28;20025;-74
2021/08/21 10:52:51;;;;;;;11.35;6.70;;;25.50;99.90;;;;;;5052211;28;20496;-73
2021/08/21 10:55:18;;;;;;;11.82;7.68;;;25.60;99.90;;;;;;5051161;28;20021;-73
2021/08/21 10:58:04;;;;;;;9.82;6.78;;;25.70;99.90;;;;;;5052325;28;20028;-74
2021/08/21 11:00:39;;;;;;;10.95;7.53;;;25.70;99.90;;;;;;5050118;28;20061;-73
2021/08/21 11:03:10;;;;;;;11.52;7.07;;;25.60;99.90;;;;;;5050707;28;20397;-73
2021/08/21 11:06:00;;;;;;;12.77;7.35;;;25.60;99.90;;;;;;5054204;28;20025;-74
2021/08/21 11:08:31;;;;;;;9.75;6.53;;;25.60;99.90;;;;;;5051749;28;20036;-74
2021/08/21 11:11:17;;;;;;;14.52;7.28;;;25.50;99.90;;;;;;5047126;28;20449;-73
2021/08/21 11:14:02;;;;;;;8.07;6.38;;;25.50;99.90;;;;;;5061826;28;20128;-74
2021/08/21 11:16:54;;;;;;;11.43;6.88;;;25.50;99.90;;;;;;5066432;28;20025;-75
2021/08/21 11:19:28;;;;;;;10.80;7.47;;;25.40;99.90;;;;;;5056786;28;20056;-75
2021/08/21 11:22:24;;;;;;;14.73;8.63;;;25.40;99.90;;;;;;5054784;28;20362;-75
2021/08/21 11:24:53;;;;;;;12.40;6.72;;;25.20;99.90;;;;;;5050747;28;20385;-74
2021/08/21 11:27:28;;;;;;;11.90;7.97;;;25.10;99.90;;;;;;5052685;28;20052;-74
2021/08/21 11:32:58;;;;;;;9.07;7.10;;;25.00;99.90;;;;;;5056900;28;20052;-74
2021/08/21 11:35:31;;;;;;;11.77;7.47;;;24.90;99.90;;;;;;5049180;28;20075;-74
2021/08/21 11:38:00;;;;;;;10.70;8.00;;;24.90;99.90;;;;;;5050393;28;20029;-75
2021/08/21 11:40:39;;;;;;;11.02;8.15;;;24.90;99.90;;;;;;5043886;28;20025;-74
2021/08/21 11:43:07;;;;;;;11.05;7.55;;;24.90;99.90;;;;;;5046096;28;20025;-74
2021/08/21 11:45:34;;;;;;;11.45;7.18;;;24.80;99.90;;;;;;5050644;28;20036;-74
2021/08/21 11:48:00;;;;;;;12.13;6.80;;;24.80;99.90;;;;;;5061520;28;20092;-74
2021/08/21 11:50:36;;;;;;;8.93;6.20;;;25.00;99.90;;;;;;5048279;28;20021;-74
2021/08/21 11:53:16;;;;;;;9.60;7.65;;;25.20;99.90;;;;;;5052557;28;20023;-74
2021/08/21 11:55:41;;;;;;;12.98;8.05;;;25.30;99.90;;;;;;5050788;28;20029;-73
2021/08/21 11:58:08;;;;;;;11.85;7.38;;;25.40;99.90;;;;;;5052238;28;20108;-75
2021/08/21 12:00:39;;;;;;;13.18;8.65;;;25.30;99.90;;;;;;5050737;28;20043;-74
2021/08/21 12:03:08;;;;;;;13.48;9.57;;;25.20;99.90;;;;;;5049720;28;20378;-74
2021/08/21 12:05:37;;;;;;;14.55;10.70;;;25.20;99.90;;;;;;5046621;28;20021;-74
2021/08/21 12:08:20;;;;;;;12.82;9.30;;;25.10;99.90;;;;;;5051213;28;20488;-74
2021/08/21 12:10:53;;;;;;;17.05;10.43;;;25.00;99.90;;;;;;5048891;28;20044;-74
2021/08/21 12:13:23;;;;;;;15.65;8.95;;;24.90;99.90;;;;;;5047593;28;20033;-73
2021/08/21 12:15:49;;;;;;;15.23;10.90;;;24.70;99.90;;;;;;5055803;28;20546;-75
2021/08/21 12:18:16;;;;;;;14.33;9.70;;;24.60;99.90;;;;;;5055515;28;20025;-74
2021/08/21 12:20:42;;;;;;;15.88;10.48;;;24.50;99.90;;;;;;5056299;28;20060;-74
2021/08/21 12:23:11;;;;;;;16.60;9.60;;;24.50;99.90;;;;;;5056334;28;20104;-73
2021/08/21 12:25:51;;;;;;;13.75;8.52;;;24.50;99.90;;;;;;5055258;28;20490;-74
2021/08/21 12:28:19;;;;;;;13.23;8.30;;;24.50;99.90;;;;;;5051464;28;20033;-73
2021/08/21 12:31:07;;;;;;;14.32;8.45;;;24.60;99.90;;;;;;5053278;28;20041;-73
2021/08/21 12:33:39;;;;;;;15.02;9.88;;;24.50;99.90;;;;;;5056277;28;20481;-73
2021/08/21 12:36:22;;;;;;;16.33;9.10;;;24.50;99.90;;;;;;5071452;28;20025;-76
2021/08/21 12:39:01;;;;;;;11.90;8.52;;;24.60;99.90;;;;;;5056363;28;20047;-73